sensor_id;sensor_type;location;lat;lon;timestamp;temperature;humidity
3406;DHT22;10008;48.682;9.016;2023-05-07T00:01:17;13.40;99.90
3406;DHT22;10008;48.682;9.016;2023-05-07T00:03:44;13.30;99.90
3406;DHT22;10008;48.682;9.016;2023-05-07T00:06:10;13.20;99.90
3406;DHT22;10008;48.682;9.016;2023-05-07T00:08:38;13.20;99.90
3406;DHT22;10008;48.682;9.016;2023-05-07T00:11:04;13.30;99.90
3406;DHT22;10008;48.682;9.016;2023-05-07T00:13:30;13.40;99.90
3406;DHT22;10008;48.682;9.016;2023-05-07T00:16:01;13.40;99.90
3406;DHT22;10008;48.682;9.016;2023-05-07T00:18:28;13.20;99.90
3406;DHT22;10008;48.682;9.016;2023-05-07T00:20:53;13.30;99.90
3406;DHT22;10008;48.682;9.016;2023-05-07T00:23:19;13.30;99.90
3406;DHT22;10008;48.682;9.016;2023-05-07T00:25:45;13.20;99.90
3406;DHT22;10008;48.682;9.016;2023-05-07T00:28:10;13.20;99.90
3406;DHT22;10008;48.682;9.016;2023-05-07T00:30:36;13.30;99.90
3406;DHT22;10008;48.682;9.016;2023-05-07T00:33:02;13.30;99.90
3406;DHT22;10008;48.682;9.016;2023-05-07T00:35:28;13.30;99.90
3406;DHT22;10008;48.682;9.016;2023-05-07T00:37:55;13.30;99.90
3406;DHT22;10008;48.682;9.016;2023-05-07T00:40:21;13.20;99.90
3406;DHT22;10008;48.682;9.016;2023-05-07T00:42:46;13.10;99.90
3406;DHT22;10008;48.682;9.016;2023-05-07T00:45:15;13.10;99.90
3406;DHT22;10008;48.682;9.016;2023-05-07T00:47:41;13.10;99.90
3406;DHT22;10008;48.682;9.016;2023-05-07T00:50:08;13.10;99.90
3406;DHT22;10008;48.682;9.016;2023-05-07T00:52:35;13.00;99.90
3406;DHT22;10008;48.682;9.016;2023-05-07T00:55:05;13.00;99.90
3406;DHT22;10008;48.682;9.016;2023-05-07T00:57:35;13.00;99.90
3406;DHT22;10008;48.682;9.016;2023-05-07T01:00:04;13.00;99.90
3406;DHT22;10008;48.682;9.016;2023-05-07T01:02:30;12.90;99.90
3406;DHT22;10008;48.682;9.016;2023-05-07T01:04:56;12.90;99.90
3406;DHT22;10008;48.682;9.016;2023-05-07T01:07:22;13.00;99.90
3406;DHT22;10008;48.682;9.016;2023-05-07T01:09:49;13.00;99.90
3406;DHT22;10008;48.682;9.016;2023-05-07T01:12:15;13.10;99.90
3406;DHT22;10008;48.682;9.016;2023-05-07T01:14:41;13.10;99.90
3406;DHT22;10008;48.682;9.016;2023-05-07T01:17:07;13.00;99.90
3406;DHT22;10008;48.682;9.016;2023-05-07T01:19:34;13.10;99.90
3406;DHT22;10008;48.682;9.016;2023-05-07T01:22:09;13.00;99.90
3406;DHT22;10008;48.682;9.016;2023-05-07T01:24:46;13.00;99.90
3406;DHT22;10008;48.682;9.016;2023-05-07T01:27:13;13.00;99.90
3406;DHT22;10008;48.682;9.016;2023-05-07T01:29:39;13.00;99.90
3406;DHT22;10008;48.682;9.016;2023-05-07T01:32:06;12.90;99.90
3406;DHT22;10008;48.682;9.016;2023-05-07T01:34:33;12.90;99.90
3406;DHT22;10008;48.682;9.016;2023-05-07T01:37:00;12.90;99.90
3406;DHT22;10008;48.682;9.016;2023-05-07T01:39:28;12.80;99.90
3406;DHT22;10008;48.682;9.016;2023-05-07T01:41:58;12.80;99.90
3406;DHT22;10008;48.682;9.016;2023-05-07T01:44:26;12.80;99.90
3406;DHT22;10008;48.682;9.016;2023-05-07T01:46:53;12.90;99.90
3406;DHT22;10008;48.682;9.016;2023-05-07T01:49:19;13.00;99.90
3406;DHT22;10008;48.682;9.016;2023-05-07T01:51:45;12.90;99.90
3406;DHT22;10008;48.682;9.016;2023-05-07T01:54:10;12.90;99.90
3406;DHT22;10008;48.682;9.016;2023-05-07T01:56:36;12.90;99.90
3406;DHT22;10008;48.682;9.016;2023-05-07T01:59:02;12.80;99.90
3406;DHT22;10008;48.682;9.016;2023-05-07T02:01:28;12.80;99.90
3406;DHT22;10008;48.682;9.016;2023-05-07T02:03:54;12.70;99.90
3406;DHT22;10008;48.682;9.016;2023-05-07T02:06:24;12.70;99.90
3406;DHT22;10008;48.682;9.016;2023-05-07T02:08:54;12.60;99.90
3406;DHT22;10008;48.682;9.016;2023-05-07T02:11:19;12.60;99.90
3406;DHT22;10008;48.682;9.016;2023-05-07T02:13:45;12.50;99.90
3406;DHT22;10008;48.682;9.016;2023-05-07T02:16:11;12.70;99.90
3406;DHT22;10008;48.682;9.016;2023-05-07T02:18:39;12.60;99.90
3406;DHT22;10008;48.682;9.016;2023-05-07T02:21:05;12.60;99.90
3406;DHT22;10008;48.682;9.016;2023-05-07T02:23:31;12.50;99.90
3406;DHT22;10008;48.682;9.016;2023-05-07T02:25:58;12.50;99.90
3406;DHT22;10008;48.682;9.016;2023-05-07T02:28:24;12.50;99.90
3406;DHT22;10008;48.682;9.016;2023-05-07T02:30:54;12.50;99.90
3406;DHT22;10008;48.682;9.016;2023-05-07T02:33:20;12.40;99.90
3406;DHT22;10008;48.682;9.016;2023-05-07T02:35:47;12.50;99.90
3406;DHT22;10008;48.682;9.016;2023-05-07T02:38:14;12.40;99.90
3406;DHT22;10008;48.682;9.016;2023-05-07T02:40:40;12.40;99.90
3406;DHT22;10008;48.682;9.016;2023-05-07T02:43:07;12.40;99.90
3406;DHT22;10008;48.682;9.016;2023-05-07T02:45:33;12.30;99.90
3406;DHT22;10008;48.682;9.016;2023-05-07T02:48:00;12.30;99.90
3406;DHT22;10008;48.682;9.016;2023-05-07T02:50:26;12.20;99.90
3406;DHT22;10008;48.682;9.016;2023-05-07T02:52:53;12.30;99.90
3406;DHT22;10008;48.682;9.016;2023-05-07T02:55:18;12.10;99.90
3406;DHT22;10008;48.682;9.016;2023-05-07T02:57:44;12.10;99.90
3406;DHT22;10008;48.682;9.016;2023-05-07T03:00:12;12.00;99.90
3406;DHT22;10008;48.682;9.016;2023-05-07T03:02:41;11.90;99.90
3406;DHT22;10008;48.682;9.016;2023-05-07T03:05:07;11.80;99.90
3406;DHT22;10008;48.682;9.016;2023-05-07T03:07:35;11.80;99.90
3406;DHT22;10008;48.682;9.016;2023-05-07T03:10:01;11.70;99.90
3406;DHT22;10008;48.682;9.016;2023-05-07T03:12:27;11.70;99.90
3406;DHT22;10008;48.682;9.016;2023-05-07T03:14:52;11.80;99.90
3406;DHT22;10008;48.682;9.016;2023-05-07T03:17:20;11.80;99.90
3406;DHT22;10008;48.682;9.016;2023-05-07T03:19:45;11.60;99.90
3406;DHT22;10008;48.682;9.016;2023-05-07T03:22:12;11.60;99.90
3406;DHT22;10008;48.682;9.016;2023-05-07T03:24:37;11.60;99.90
3406;DHT22;10008;48.682;9.016;2023-05-07T03:27:03;11.60;99.90
3406;DHT22;10008;48.682;9.016;2023-05-07T03:29:29;11.60;99.90
3406;DHT22;10008;48.682;9.016;2023-05-07T03:31:55;11.60;99.90
3406;DHT22;10008;48.682;9.016;2023-05-07T03:34:21;11.60;99.90
3406;DHT22;10008;48.682;9.016;2023-05-07T03:36:51;11.50;99.90
3406;DHT22;10008;48.682;9.016;2023-05-07T03:39:18;11.60;99.90
3406;DHT22;10008;48.682;9.016;2023-05-07T03:41:44;11.70;99.90
3406;DHT22;10008;48.682;9.016;2023-05-07T03:44:10;11.70;99.90
3406;DHT22;10008;48.682;9.016;2023-05-07T03:46:36;11.60;99.90
3406;DHT22;10008;48.682;9.016;2023-05-07T03:49:02;11.50;99.90
3406;DHT22;10008;48.682;9.016;2023-05-07T03:51:28;11.50;99.90
3406;DHT22;10008;48.682;9.016;2023-05-07T03:53:54;11.40;99.90
3406;DHT22;10008;48.682;9.016;2023-05-07T03:56:22;11.40;99.90
3406;DHT22;10008;48.682;9.016;2023-05-07T03:58:53;11.50;99.90
3406;DHT22;10008;48.682;9.016;2023-05-07T04:01:20;11.50;99.90
3406;DHT22;10008;48.682;9.016;2023-05-07T04:03:46;11.40;99.90
3406;DHT22;10008;48.682;9.016;2023-05-07T04:06:12;11.30;99.90
3406;DHT22;10008;48.682;9.016;2023-05-07T04:08:40;11.20;99.90
3406;DHT22;10008;48.682;9.016;2023-05-07T04:11:06;11.20;99.90
3406;DHT22;10008;48.682;9.016;2023-05-07T04:13:34;11.20;99.90
3406;DHT22;10008;48.682;9.016;2023-05-07T04:16:03;11.30;99.90
3406;DHT22;10008;48.682;9.016;2023-05-07T04:18:29;11.30;99.90
3406;DHT22;10008;48.682;9.016;2023-05-07T04:20:55;11.30;99.90
3406;DHT22;10008;48.682;9.016;2023-05-07T04:23:21;11.30;99.90
3406;DHT22;10008;48.682;9.016;2023-05-07T04:25:47;11.30;99.90
3406;DHT22;10008;48.682;9.016;2023-05-07T04:28:23;11.40;99.90
3406;DHT22;10008;48.682;9.016;2023-05-07T04:30:50;11.50;99.90
3406;DHT22;10008;48.682;9.016;2023-05-07T04:33:16;11.50;99.90
3406;DHT22;10008;48.682;9.016;2023-05-07T04:35:43;11.50;99.90
3406;DHT22;10008;48.682;9.016;2023-05-07T04:38:09;11.50;99.90
3406;DHT22;10008;48.682;9.016;2023-05-07T04:40:38;11.50;99.90
3406;DHT22;10008;48.682;9.016;2023-05-07T04:43:05;11.40;99.90
3406;DHT22;10008;48.682;9.016;2023-05-07T04:45:38;11.50;99.90
3406;DHT22;10008;48.682;9.016;2023-05-07T04:48:08;11.50;99.90
3406;DHT22;10008;48.682;9.016;2023-05-07T04:50:34;11.40;99.90
3406;DHT22;10008;48.682;9.016;2023-05-07T04:53:02;11.30;99.90
3406;DHT22;10008;48.682;9.016;2023-05-07T04:55:28;11.30;99.90
3406;DHT22;10008;48.682;9.016;2023-05-07T04:57:54;11.30;99.90
3406;DHT22;10008;48.682;9.016;2023-05-07T05:00:21;11.50;99.90
3406;DHT22;10008;48.682;9.016;2023-05-07T05:02:49;11.50;99.90
3406;DHT22;10008;48.682;9.016;2023-05-07T05:05:18;11.50;99.90
3406;DHT22;10008;48.682;9.016;2023-05-07T05:07:44;11.50;99.90
3406;DHT22;10008;48.682;9.016;2023-05-07T05:10:11;11.60;99.90
3406;DHT22;10008;48.682;9.016;2023-05-07T05:12:39;11.60;99.90
3406;DHT22;10008;48.682;9.016;2023-05-07T05:15:06;11.70;99.90
3406;DHT22;10008;48.682;9.016;2023-05-07T05:17:32;11.80;99.90
3406;DHT22;10008;48.682;9.016;2023-05-07T05:20:01;12.00;99.90
3406;DHT22;10008;48.682;9.016;2023-05-07T05:22:28;12.10;99.90
3406;DHT22;10008;48.682;9.016;2023-05-07T05:24:56;12.30;99.90
3406;DHT22;10008;48.682;9.016;2023-05-07T05:27:22;12.60;99.90
3406;DHT22;10008;48.682;9.016;2023-05-07T05:29:48;12.90;99.90
3406;DHT22;10008;48.682;9.016;2023-05-07T05:32:14;13.10;99.90
3406;DHT22;10008;48.682;9.016;2023-05-07T05:34:40;13.30;99.90
3406;DHT22;10008;48.682;9.016;2023-05-07T05:37:05;13.50;99.90
3406;DHT22;10008;48.682;9.016;2023-05-07T05:39:31;13.60;99.90
3406;DHT22;10008;48.682;9.016;2023-05-07T05:41:58;13.80;99.90
3406;DHT22;10008;48.682;9.016;2023-05-07T05:44:24;14.30;99.90
3406;DHT22;10008;48.682;9.016;2023-05-07T05:46:49;15.50;99.90
3406;DHT22;10008;48.682;9.016;2023-05-07T05:49:15;16.40;99.90
3406;DHT22;10008;48.682;9.016;2023-05-07T05:51:42;16.60;99.90
3406;DHT22;10008;48.682;9.016;2023-05-07T05:54:08;17.00;99.90
3406;DHT22;10008;48.682;9.016;2023-05-07T05:56:34;17.20;99.90
3406;DHT22;10008;48.682;9.016;2023-05-07T05:58:59;17.50;99.90
3406;DHT22;10008;48.682;9.016;2023-05-07T06:01:25;18.10;99.90
3406;DHT22;10008;48.682;9.016;2023-05-07T06:03:54;19.20;99.90
3406;DHT22;10008;48.682;9.016;2023-05-07T06:06:19;20.70;99.90
3406;DHT22;10008;48.682;9.016;2023-05-07T06:08:45;21.50;99.90
3406;DHT22;10008;48.682;9.016;2023-05-07T06:11:15;21.70;99.30
3406;DHT22;10008;48.682;9.016;2023-05-07T06:13:44;22.30;98.90
3406;DHT22;10008;48.682;9.016;2023-05-07T06:16:10;22.80;97.40
3406;DHT22;10008;48.682;9.016;2023-05-07T06:18:36;23.20;96.00
3406;DHT22;10008;48.682;9.016;2023-05-07T06:21:02;23.30;95.40
3406;DHT22;10008;48.682;9.016;2023-05-07T06:23:31;23.70;94.40
3406;DHT22;10008;48.682;9.016;2023-05-07T06:25:58;24.40;94.00
3406;DHT22;10008;48.682;9.016;2023-05-07T06:28:29;24.50;92.40
3406;DHT22;10008;48.682;9.016;2023-05-07T06:31:12;24.40;91.60
3406;DHT22;10008;48.682;9.016;2023-05-07T06:33:38;24.50;91.70
3406;DHT22;10008;48.682;9.016;2023-05-07T06:36:04;24.70;91.00
3406;DHT22;10008;48.682;9.016;2023-05-07T06:38:31;24.60;90.80
3406;DHT22;10008;48.682;9.016;2023-05-07T06:40:56;23.90;91.30
3406;DHT22;10008;48.682;9.016;2023-05-07T06:43:23;22.60;92.40
3406;DHT22;10008;48.682;9.016;2023-05-07T06:46:10;22.40;93.70
3406;DHT22;10008;48.682;9.016;2023-05-07T06:48:35;22.70;94.10
3406;DHT22;10008;48.682;9.016;2023-05-07T06:51:04;22.90;93.50
3406;DHT22;10008;48.682;9.016;2023-05-07T06:53:30;23.30;93.20
3406;DHT22;10008;48.682;9.016;2023-05-07T06:55:58;23.40;92.90
3406;DHT22;10008;48.682;9.016;2023-05-07T06:58:24;24.00;92.40
3406;DHT22;10008;48.682;9.016;2023-05-07T07:00:50;24.70;91.20
3406;DHT22;10008;48.682;9.016;2023-05-07T07:03:16;26.00;91.00
3406;DHT22;10008;48.682;9.016;2023-05-07T07:05:42;26.30;89.20
3406;DHT22;10008;48.682;9.016;2023-05-07T07:08:09;26.40;88.30
3406;DHT22;10008;48.682;9.016;2023-05-07T07:10:36;26.30;88.00
3406;DHT22;10008;48.682;9.016;2023-05-07T07:13:02;26.20;87.80
3406;DHT22;10008;48.682;9.016;2023-05-07T07:15:28;26.70;86.80
3406;DHT22;10008;48.682;9.016;2023-05-07T07:17:55;27.10;85.30
3406;DHT22;10008;48.682;9.016;2023-05-07T07:20:22;27.70;83.70
3406;DHT22;10008;48.682;9.016;2023-05-07T07:22:48;28.10;80.30
3406;DHT22;10008;48.682;9.016;2023-05-07T07:25:15;27.90;80.00
3406;DHT22;10008;48.682;9.016;2023-05-07T07:27:41;27.50;80.70
3406;DHT22;10008;48.682;9.016;2023-05-07T07:30:08;26.70;81.20
3406;DHT22;10008;48.682;9.016;2023-05-07T07:32:36;25.90;84.90
3406;DHT22;10008;48.682;9.016;2023-05-07T07:35:03;26.20;85.00
3406;DHT22;10008;48.682;9.016;2023-05-07T07:37:30;26.50;83.20
3406;DHT22;10008;48.682;9.016;2023-05-07T07:39:56;26.60;84.40
3406;DHT22;10008;48.682;9.016;2023-05-07T07:42:22;26.00;84.80
3406;DHT22;10008;48.682;9.016;2023-05-07T07:44:48;26.00;86.40
3406;DHT22;10008;48.682;9.016;2023-05-07T07:47:16;26.20;86.30
3406;DHT22;10008;48.682;9.016;2023-05-07T07:49:43;26.10;84.50
3406;DHT22;10008;48.682;9.016;2023-05-07T07:52:09;26.20;85.10
3406;DHT22;10008;48.682;9.016;2023-05-07T07:54:36;26.30;84.80
3406;DHT22;10008;48.682;9.016;2023-05-07T07:57:03;26.40;82.80
3406;DHT22;10008;48.682;9.016;2023-05-07T07:59:32;26.60;84.40
3406;DHT22;10008;48.682;9.016;2023-05-07T08:01:57;27.30;82.70
3406;DHT22;10008;48.682;9.016;2023-05-07T08:04:25;28.10;81.10
3406;DHT22;10008;48.682;9.016;2023-05-07T08:06:53;28.20;78.00
3406;DHT22;10008;48.682;9.016;2023-05-07T08:09:20;28.40;79.50
3406;DHT22;10008;48.682;9.016;2023-05-07T08:11:46;28.50;76.70
3406;DHT22;10008;48.682;9.016;2023-05-07T08:14:13;28.70;75.60
3406;DHT22;10008;48.682;9.016;2023-05-07T08:16:39;28.00;77.00
3406;DHT22;10008;48.682;9.016;2023-05-07T08:19:06;28.20;77.20
3406;DHT22;10008;48.682;9.016;2023-05-07T08:21:31;28.40;76.20
3406;DHT22;10008;48.682;9.016;2023-05-07T08:23:57;28.70;74.50
3406;DHT22;10008;48.682;9.016;2023-05-07T08:26:23;28.00;75.00
3406;DHT22;10008;48.682;9.016;2023-05-07T08:28:49;27.50;76.30
3406;DHT22;10008;48.682;9.016;2023-05-07T08:31:15;28.20;77.60
3406;DHT22;10008;48.682;9.016;2023-05-07T08:33:43;29.20;74.50
3406;DHT22;10008;48.682;9.016;2023-05-07T08:36:09;28.80;73.30
3406;DHT22;10008;48.682;9.016;2023-05-07T08:38:34;28.70;73.60
3406;DHT22;10008;48.682;9.016;2023-05-07T08:41:01;29.20;72.90
3406;DHT22;10008;48.682;9.016;2023-05-07T08:43:31;29.10;72.70
3406;DHT22;10008;48.682;9.016;2023-05-07T08:46:00;29.20;72.80
3406;DHT22;10008;48.682;9.016;2023-05-07T08:48:31;29.70;70.30
3406;DHT22;10008;48.682;9.016;2023-05-07T08:51:05;30.00;69.60
3406;DHT22;10008;48.682;9.016;2023-05-07T08:53:31;30.30;69.70
3406;DHT22;10008;48.682;9.016;2023-05-07T08:55:59;29.90;67.70
3406;DHT22;10008;48.682;9.016;2023-05-07T08:58:25;29.80;68.40
3406;DHT22;10008;48.682;9.016;2023-05-07T09:00:53;29.40;69.80
3406;DHT22;10008;48.682;9.016;2023-05-07T09:03:20;29.60;68.60
3406;DHT22;10008;48.682;9.016;2023-05-07T09:05:49;29.50;66.80
3406;DHT22;10008;48.682;9.016;2023-05-07T09:08:16;29.80;67.30
3406;DHT22;10008;48.682;9.016;2023-05-07T09:10:44;29.40;67.90
3406;DHT22;10008;48.682;9.016;2023-05-07T09:13:11;29.60;67.60
3406;DHT22;10008;48.682;9.016;2023-05-07T09:15:39;29.80;66.50
3406;DHT22;10008;48.682;9.016;2023-05-07T09:18:06;30.50;67.40
3406;DHT22;10008;48.682;9.016;2023-05-07T09:20:33;30.60;66.40
3406;DHT22;10008;48.682;9.016;2023-05-07T09:23:01;30.30;65.40
3406;DHT22;10008;48.682;9.016;2023-05-07T09:25:32;30.00;66.70
3406;DHT22;10008;48.682;9.016;2023-05-07T09:28:04;30.50;67.00
3406;DHT22;10008;48.682;9.016;2023-05-07T09:30:33;31.40;66.00
3406;DHT22;10008;48.682;9.016;2023-05-07T09:33:03;30.80;64.50
3406;DHT22;10008;48.682;9.016;2023-05-07T09:35:30;30.40;65.30
3406;DHT22;10008;48.682;9.016;2023-05-07T09:38:01;30.50;65.10
3406;DHT22;10008;48.682;9.016;2023-05-07T09:40:30;30.50;65.60
3406;DHT22;10008;48.682;9.016;2023-05-07T09:43:10;30.50;64.20
3406;DHT22;10008;48.682;9.016;2023-05-07T09:45:49;29.80;66.60
3406;DHT22;10008;48.682;9.016;2023-05-07T09:48:18;29.20;66.60
3406;DHT22;10008;48.682;9.016;2023-05-07T09:50:49;29.50;68.10
3406;DHT22;10008;48.682;9.016;2023-05-07T09:53:17;30.80;65.50
3406;DHT22;10008;48.682;9.016;2023-05-07T09:55:45;31.10;63.60
3406;DHT22;10008;48.682;9.016;2023-05-07T09:58:12;31.50;64.80
3406;DHT22;10008;48.682;9.016;2023-05-07T10:00:39;30.80;62.80
3406;DHT22;10008;48.682;9.016;2023-05-07T10:03:10;30.90;63.00
3406;DHT22;10008;48.682;9.016;2023-05-07T10:05:45;31.60;62.10
3406;DHT22;10008;48.682;9.016;2023-05-07T10:08:13;32.20;60.40
3406;DHT22;10008;48.682;9.016;2023-05-07T10:10:44;32.30;59.90
3406;DHT22;10008;48.682;9.016;2023-05-07T10:13:14;32.30;59.50
3406;DHT22;10008;48.682;9.016;2023-05-07T10:15:46;32.80;59.00
3406;DHT22;10008;48.682;9.016;2023-05-07T10:18:13;33.50;59.00
3406;DHT22;10008;48.682;9.016;2023-05-07T10:20:41;33.60;58.70
3406;DHT22;10008;48.682;9.016;2023-05-07T10:23:13;33.30;58.20
3406;DHT22;10008;48.682;9.016;2023-05-07T10:25:43;33.30;58.70
3406;DHT22;10008;48.682;9.016;2023-05-07T10:28:18;33.40;58.30
3406;DHT22;10008;48.682;9.016;2023-05-07T10:33:23;34.00;54.50
3406;DHT22;10008;48.682;9.016;2023-05-07T10:35:50;33.90;55.30
3406;DHT22;10008;48.682;9.016;2023-05-07T10:38:17;34.40;54.10
3406;DHT22;10008;48.682;9.016;2023-05-07T10:40:45;35.00;53.60
3406;DHT22;10008;48.682;9.016;2023-05-07T10:43:11;35.40;53.00
3406;DHT22;10008;48.682;9.016;2023-05-07T10:45:42;35.80;51.60
3406;DHT22;10008;48.682;9.016;2023-05-07T10:48:12;35.70;50.90
3406;DHT22;10008;48.682;9.016;2023-05-07T10:50:43;35.60;51.80
3406;DHT22;10008;48.682;9.016;2023-05-07T10:58:54;34.90;51.30
3406;DHT22;10008;48.682;9.016;2023-05-07T11:01:50;35.90;48.80
3406;DHT22;10008;48.682;9.016;2023-05-07T11:04:21;35.60;48.60
3406;DHT22;10008;48.682;9.016;2023-05-07T11:15:13;34.80;51.20
3406;DHT22;10008;48.682;9.016;2023-05-07T11:17:56;34.90;49.50
3406;DHT22;10008;48.682;9.016;2023-05-07T11:20:57;34.70;49.90
3406;DHT22;10008;48.682;9.016;2023-05-07T11:26:25;32.10;51.40
3406;DHT22;10008;48.682;9.016;2023-05-07T11:28:51;30.20;55.20
3406;DHT22;10008;48.682;9.016;2023-05-07T11:31:24;28.70;57.70
3406;DHT22;10008;48.682;9.016;2023-05-07T11:33:52;27.40;61.30
3406;DHT22;10008;48.682;9.016;2023-05-07T11:36:24;26.70;63.10
3406;DHT22;10008;48.682;9.016;2023-05-07T11:38:53;26.20;64.70
3406;DHT22;10008;48.682;9.016;2023-05-07T11:41:19;25.60;69.10
3406;DHT22;10008;48.682;9.016;2023-05-07T11:43:56;25.10;70.40
3406;DHT22;10008;48.682;9.016;2023-05-07T11:46:22;24.80;71.10
3406;DHT22;10008;48.682;9.016;2023-05-07T11:48:48;24.30;68.90
3406;DHT22;10008;48.682;9.016;2023-05-07T11:51:25;24.00;71.00
3406;DHT22;10008;48.682;9.016;2023-05-07T11:53:52;24.00;73.70
3406;DHT22;10008;48.682;9.016;2023-05-07T11:56:18;23.90;71.70
3406;DHT22;10008;48.682;9.016;2023-05-07T11:58:46;23.60;75.90
3406;DHT22;10008;48.682;9.016;2023-05-07T12:01:13;23.30;78.20
3406;DHT22;10008;48.682;9.016;2023-05-07T12:03:41;22.80;81.20
3406;DHT22;10008;48.682;9.016;2023-05-07T12:06:12;22.40;84.80
3406;DHT22;10008;48.682;9.016;2023-05-07T12:08:39;22.00;84.80
3406;DHT22;10008;48.682;9.016;2023-05-07T12:11:24;21.70;83.10
3406;DHT22;10008;48.682;9.016;2023-05-07T12:13:50;21.20;73.50
3406;DHT22;10008;48.682;9.016;2023-05-07T12:16:17;20.90;72.80
3406;DHT22;10008;48.682;9.016;2023-05-07T12:18:44;20.70;71.60
3406;DHT22;10008;48.682;9.016;2023-05-07T12:21:10;20.30;73.00
3406;DHT22;10008;48.682;9.016;2023-05-07T12:23:36;20.20;74.40
3406;DHT22;10008;48.682;9.016;2023-05-07T12:26:03;19.90;77.20
3406;DHT22;10008;48.682;9.016;2023-05-07T12:28:36;19.60;81.30
3406;DHT22;10008;48.682;9.016;2023-05-07T12:31:02;19.50;85.20
3406;DHT22;10008;48.682;9.016;2023-05-07T12:33:28;19.30;87.20
3406;DHT22;10008;48.682;9.016;2023-05-07T12:35:56;19.10;89.40
3406;DHT22;10008;48.682;9.016;2023-05-07T12:38:22;19.00;90.80
3406;DHT22;10008;48.682;9.016;2023-05-07T12:40:53;19.10;90.20
3406;DHT22;10008;48.682;9.016;2023-05-07T12:43:21;18.90;93.00
3406;DHT22;10008;48.682;9.016;2023-05-07T12:45:49;18.60;97.10
3406;DHT22;10008;48.682;9.016;2023-05-07T12:48:15;18.20;99.90
3406;DHT22;10008;48.682;9.016;2023-05-07T12:50:41;17.90;99.90
3406;DHT22;10008;48.682;9.016;2023-05-07T12:53:08;17.60;99.90
3406;DHT22;10008;48.682;9.016;2023-05-07T12:55:56;17.20;99.90
3406;DHT22;10008;48.682;9.016;2023-05-07T12:58:28;17.00;99.90
3406;DHT22;10008;48.682;9.016;2023-05-07T13:00:55;16.60;99.90
3406;DHT22;10008;48.682;9.016;2023-05-07T13:03:25;16.20;99.90
3406;DHT22;10008;48.682;9.016;2023-05-07T13:05:51;15.90;99.90
3406;DHT22;10008;48.682;9.016;2023-05-07T13:08:35;15.70;99.90
3406;DHT22;10008;48.682;9.016;2023-05-07T13:11:03;15.60;99.90
3406;DHT22;10008;48.682;9.016;2023-05-07T13:13:33;15.40;99.90
3406;DHT22;10008;48.682;9.016;2023-05-07T13:16:00;15.30;99.90
3406;DHT22;10008;48.682;9.016;2023-05-07T13:18:26;15.30;99.90
3406;DHT22;10008;48.682;9.016;2023-05-07T13:20:53;15.30;99.90
3406;DHT22;10008;48.682;9.016;2023-05-07T13:23:19;15.40;99.90
3406;DHT22;10008;48.682;9.016;2023-05-07T13:25:45;15.40;99.90
3406;DHT22;10008;48.682;9.016;2023-05-07T13:28:10;15.30;99.90
3406;DHT22;10008;48.682;9.016;2023-05-07T13:30:36;15.30;99.90
3406;DHT22;10008;48.682;9.016;2023-05-07T13:33:02;15.20;99.90
3406;DHT22;10008;48.682;9.016;2023-05-07T13:35:28;15.20;99.90
3406;DHT22;10008;48.682;9.016;2023-05-07T13:37:54;15.20;99.90
3406;DHT22;10008;48.682;9.016;2023-05-07T13:40:23;15.00;99.90
3406;DHT22;10008;48.682;9.016;2023-05-07T13:42:49;15.00;99.90
3406;DHT22;10008;48.682;9.016;2023-05-07T13:45:16;15.20;99.90
3406;DHT22;10008;48.682;9.016;2023-05-07T13:47:42;15.00;99.90
3406;DHT22;10008;48.682;9.016;2023-05-07T13:50:09;15.00;99.90
3406;DHT22;10008;48.682;9.016;2023-05-07T13:52:37;14.90;99.90
3406;DHT22;10008;48.682;9.016;2023-05-07T13:55:04;14.90;99.90
3406;DHT22;10008;48.682;9.016;2023-05-07T13:57:29;15.00;99.90
3406;DHT22;10008;48.682;9.016;2023-05-07T13:59:55;14.90;99.90
3406;DHT22;10008;48.682;9.016;2023-05-07T14:02:21;14.80;99.90
3406;DHT22;10008;48.682;9.016;2023-05-07T14:04:47;14.90;99.90
3406;DHT22;10008;48.682;9.016;2023-05-07T14:07:12;15.00;99.90
3406;DHT22;10008;48.682;9.016;2023-05-07T14:09:38;15.00;99.90
3406;DHT22;10008;48.682;9.016;2023-05-07T14:12:04;15.00;99.90
3406;DHT22;10008;48.682;9.016;2023-05-07T14:14:30;14.90;99.90
3406;DHT22;10008;48.682;9.016;2023-05-07T14:16:56;15.00;99.90
3406;DHT22;10008;48.682;9.016;2023-05-07T14:19:22;14.90;99.90
3406;DHT22;10008;48.682;9.016;2023-05-07T14:21:48;14.90;99.90
3406;DHT22;10008;48.682;9.016;2023-05-07T14:24:14;15.00;99.90
3406;DHT22;10008;48.682;9.016;2023-05-07T14:26:40;15.00;99.90
3406;DHT22;10008;48.682;9.016;2023-05-07T14:29:06;15.00;99.90
3406;DHT22;10008;48.682;9.016;2023-05-07T14:31:31;14.80;99.90
3406;DHT22;10008;48.682;9.016;2023-05-07T14:33:58;14.80;99.90
3406;DHT22;10008;48.682;9.016;2023-05-07T14:36:24;14.70;99.90
3406;DHT22;10008;48.682;9.016;2023-05-07T14:38:52;14.80;99.90
3406;DHT22;10008;48.682;9.016;2023-05-07T14:41:20;14.80;99.90
3406;DHT22;10008;48.682;9.016;2023-05-07T14:43:47;14.70;99.90
3406;DHT22;10008;48.682;9.016;2023-05-07T14:46:18;14.80;99.90
3406;DHT22;10008;48.682;9.016;2023-05-07T14:48:47;14.80;99.90
3406;DHT22;10008;48.682;9.016;2023-05-07T14:51:13;15.00;99.90
3406;DHT22;10008;48.682;9.016;2023-05-07T14:53:41;15.00;99.90
3406;DHT22;10008;48.682;9.016;2023-05-07T14:56:07;15.10;99.90
3406;DHT22;10008;48.682;9.016;2023-05-07T14:58:33;15.30;99.90
3406;DHT22;10008;48.682;9.016;2023-05-07T15:01:00;15.30;99.90
3406;DHT22;10008;48.682;9.016;2023-05-07T15:03:26;15.30;99.90
3406;DHT22;10008;48.682;9.016;2023-05-07T15:05:52;15.20;99.90
3406;DHT22;10008;48.682;9.016;2023-05-07T15:08:18;15.20;99.90
3406;DHT22;10008;48.682;9.016;2023-05-07T15:10:44;15.40;99.90
3406;DHT22;10008;48.682;9.016;2023-05-07T15:13:11;15.50;99.90
3406;DHT22;10008;48.682;9.016;2023-05-07T15:15:37;15.70;99.90
3406;DHT22;10008;48.682;9.016;2023-05-07T15:18:03;15.90;99.90
3406;DHT22;10008;48.682;9.016;2023-05-07T15:20:29;15.90;99.90
3406;DHT22;10008;48.682;9.016;2023-05-07T15:22:55;15.90;99.90
3406;DHT22;10008;48.682;9.016;2023-05-07T15:25:22;15.90;99.90
3406;DHT22;10008;48.682;9.016;2023-05-07T15:27:47;16.00;99.90
3406;DHT22;10008;48.682;9.016;2023-05-07T15:30:13;16.10;99.90
3406;DHT22;10008;48.682;9.016;2023-05-07T15:32:40;16.00;99.90
3406;DHT22;10008;48.682;9.016;2023-05-07T15:35:06;16.00;99.90
3406;DHT22;10008;48.682;9.016;2023-05-07T15:37:33;16.10;99.90
3406;DHT22;10008;48.682;9.016;2023-05-07T15:39:59;16.20;99.90
3406;DHT22;10008;48.682;9.016;2023-05-07T15:42:25;16.20;99.90
3406;DHT22;10008;48.682;9.016;2023-05-07T15:44:51;16.20;99.90
3406;DHT22;10008;48.682;9.016;2023-05-07T15:47:17;16.40;99.90
3406;DHT22;10008;48.682;9.016;2023-05-07T15:49:43;16.20;99.90
3406;DHT22;10008;48.682;9.016;2023-05-07T15:52:08;16.20;99.90
3406;DHT22;10008;48.682;9.016;2023-05-07T15:54:39;16.20;99.90
3406;DHT22;10008;48.682;9.016;2023-05-07T15:57:05;16.10;99.90
3406;DHT22;10008;48.682;9.016;2023-05-07T15:59:32;16.20;99.90
3406;DHT22;10008;48.682;9.016;2023-05-07T16:01:58;16.40;99.90
3406;DHT22;10008;48.682;9.016;2023-05-07T16:04:24;16.40;99.90
3406;DHT22;10008;48.682;9.016;2023-05-07T16:06:50;16.60;99.90